Time;durP1;ratioP1;P1;durP2;ratioP2;P2;SDS_P1;SDS_P2;PMS_P1;PMS_P2;Temp;Humidity;BMP_temperature;BMP_pressure;BME280_temperature;BME280_humidity;BME280_pressure;Samples;Min_cycle;Max_cycle;Signal;HPM_P1;HPM_P2
2022/03/20 00:01:03;;;;;;;60.7;43.2;;;;;;;;;;;;;
2022/03/20 00:03:28;;;;;;;61.9;42.9;;;;;;;;;;;;;
2022/03/20 00:05:55;;;;;;;60.8;43.9;;;;;;;;;;;;;
2022/03/20 00:08:20;;;;;;;59.7;42.5;;;;;;;;;;;;;
2022/03/20 00:10:46;;;;;;;58;41.8;;;;;;;;;;;;;
2022/03/20 00:13:15;;;;;;;57;41.8;;;;;;;;;;;;;
2022/03/20 00:15:45;;;;;;;58.9;43.4;;;;;;;;;;;;;
2022/03/20 00:18:13;;;;;;;59;41.9;;;;;;;;;;;;;
2022/03/20 00:20:38;;;;;;;62.7;43.1;;;;;;;;;;;;;
2022/03/20 00:23:04;;;;;;;58.1;43;;;;;;;;;;;;;
2022/03/20 00:25:29;;;;;;;63.3;43.1;;;;;;;;;;;;;
2022/03/20 00:27:54;;;;;;;58.7;41.8;;;;;;;;;;;;;
2022/03/20 00:30:20;;;;;;;54.5;40;;;;;;;;;;;;;
2022/03/20 00:32:45;;;;;;;56.2;39.9;;;;;;;;;;;;;
2022/03/20 00:35:13;;;;;;;58.6;40.6;;;;;;;;;;;;;
2022/03/20 00:37:38;;;;;;;56.8;40;;;;;;;;;;;;;
2022/03/20 00:40:03;;;;;;;60.3;42.1;;;;;;;;;;;;;
2022/03/20 00:42:29;;;;;;;56.2;41.3;;;;;;;;;;;;;
2022/03/20 00:44:55;;;;;;;59.2;41.9;;;;;;;;;;;;;
2022/03/20 00:47:20;;;;;;;58.2;40.7;;;;;;;;;;;;;
2022/03/20 00:49:45;;;;;;;55.7;39.4;;;;;;;;;;;;;
2022/03/20 00:55:10;;;;;;;55.4;39.9;;;;;;;;;;;;;
2022/03/20 00:57:35;;;;;;;55.5;40.1;;;;;;;;;;;;;
2022/03/20 01:00:00;;;;;;;55.6;40.2;;;;;;;;;;;;;
2022/03/20 01:02:25;;;;;;;56.4;39.9;;;;;;;;;;;;;
2022/03/20 01:04:50;;;;;;;54.9;39.8;;;;;;;;;;;;;
2022/03/20 01:07:15;;;;;;;57.8;41.4;;;;;;;;;;;;;
2022/03/20 01:09:41;;;;;;;53.3;39.3;;;;;;;;;;;;;
2022/03/20 01:12:06;;;;;;;58.4;41.2;;;;;;;;;;;;;
2022/03/20 01:14:31;;;;;;;54.6;39.8;;;;;;;;;;;;;
2022/03/20 01:16:56;;;;;;;56.6;40.9;;;;;;;;;;;;;
2022/03/20 01:19:21;;;;;;;58;40.5;;;;;;;;;;;;;
2022/03/20 01:21:46;;;;;;;60.7;40.4;;;;;;;;;;;;;
2022/03/20 01:24:11;;;;;;;59.4;40.9;;;;;;;;;;;;;
2022/03/20 01:26:36;;;;;;;54.9;38.9;;;;;;;;;;;;;
2022/03/20 01:29:02;;;;;;;55.5;39.6;;;;;;;;;;;;;
2022/03/20 01:31:28;;;;;;;54.2;38.5;;;;;;;;;;;;;
2022/03/20 01:33:53;;;;;;;55.9;39.1;;;;;;;;;;;;;
2022/03/20 01:36:31;;;;;;;55.4;39;;;;;;;;;;;;;
2022/03/20 01:38:56;;;;;;;54.4;38.4;;;;;;;;;;;;;
2022/03/20 01:41:21;;;;;;;54.3;38.9;;;;;;;;;;;;;
2022/03/20 01:43:46;;;;;;;51.8;36.9;;;;;;;;;;;;;
2022/03/20 01:46:11;;;;;;;52.9;37.4;;;;;;;;;;;;;
2022/03/20 01:48:36;;;;;;;52.9;37.4;;;;;;;;;;;;;
2022/03/20 01:51:01;;;;;;;52.1;37.4;;;;;;;;;;;;;
2022/03/20 01:53:28;;;;;;;51.3;36.1;;;;;;;;;;;;;
2022/03/20 01:55:52;;;;;;;50.4;35.5;;;;;;;;;;;;;
2022/03/20 01:58:17;;;;;;;51.9;36.7;;;;;;;;;;;;;
2022/03/20 02:00:43;;;;;;;50.6;35.5;;;;;;;;;;;;;
2022/03/20 02:03:08;;;;;;;50.5;35.7;;;;;;;;;;;;;
2022/03/20 02:05:35;;;;;;;48.4;35.1;;;;;;;;;;;;;
2022/03/20 02:08:00;;;;;;;47.7;33.4;;;;;;;;;;;;;
2022/03/20 02:10:35;;;;;;;46.3;33.4;;;;;;;;;;;;;
2022/03/20 02:12:49;;;;;;;47.9;33.6;;;;;;;;;;;;;
2022/03/20 02:15:14;;;;;;;45;33.3;;;;;;;;;;;;;
2022/03/20 02:17:39;;;;;;;45.5;33.1;;;;;;;;;;;;;
2022/03/20 02:20:04;;;;;;;46;33.2;;;;;;;;;;;;;
2022/03/20 02:22:29;;;;;;;45.6;33.3;;;;;;;;;;;;;
2022/03/20 02:24:54;;;;;;;46.9;33.5;;;;;;;;;;;;;
2022/03/20 02:27:22;;;;;;;47;33.4;;;;;;;;;;;;;
2022/03/20 02:29:45;;;;;;;48.1;32.9;;;;;;;;;;;;;
2022/03/20 02:32:10;;;;;;;48.4;34.1;;;;;;;;;;;;;
2022/03/20 02:34:35;;;;;;;47.3;33.9;;;;;;;;;;;;;
2022/03/20 02:37:00;;;;;;;49.4;34.7;;;;;;;;;;;;;
2022/03/20 02:39:25;;;;;;;47.5;33;;;;;;;;;;;;;
2022/03/20 02:41:50;;;;;;;45.2;32.5;;;;;;;;;;;;;
2022/03/20 02:44:16;;;;;;;45;31.8;;;;;;;;;;;;;
2022/03/20 02:46:42;;;;;;;47;32.4;;;;;;;;;;;;;
2022/03/20 02:49:06;;;;;;;45.9;33.4;;;;;;;;;;;;;
2022/03/20 02:51:31;;;;;;;49.6;34.5;;;;;;;;;;;;;
2022/03/20 02:53:57;;;;;;;43.9;30.4;;;;;;;;;;;;;
2022/03/20 02:56:21;;;;;;;45.6;32;;;;;;;;;;;;;
2022/03/20 02:58:47;;;;;;;44.9;30.9;;;;;;;;;;;;;
2022/03/20 03:01:12;;;;;;;40.5;28.5;;;;;;;;;;;;;
2022/03/20 03:03:37;;;;;;;39.8;27.1;;;;;;;;;;;;;
2022/03/20 03:06:06;;;;;;;37.4;27.7;;;;;;;;;;;;;
2022/03/20 03:10:59;;;;;;;36.9;26.1;;;;;;;;;;;;;
2022/03/20 03:13:18;;;;;;;36.1;25.6;;;;;;;;;;;;;
2022/03/20 03:15:43;;;;;;;34.9;24.8;;;;;;;;;;;;;
2022/03/20 03:18:08;;;;;;;34.3;24.9;;;;;;;;;;;;;
2022/03/20 03:20:35;;;;;;;34.9;25.6;;;;;;;;;;;;;
2022/03/20 03:23:00;;;;;;;35.6;25.2;;;;;;;;;;;;;
2022/03/20 03:25:25;;;;;;;34.8;24.5;;;;;;;;;;;;;
2022/03/20 03:27:50;;;;;;;33.2;24.6;;;;;;;;;;;;;
2022/03/20 03:30:21;;;;;;;35.7;24.7;;;;;;;;;;;;;
2022/03/20 03:32:46;;;;;;;32.2;24.3;;;;;;;;;;;;;
2022/03/20 03:37:36;;;;;;;32.3;23.4;;;;;;;;;;;;;
2022/03/20 03:40:02;;;;;;;29.2;22.1;;;;;;;;;;;;;
2022/03/20 03:42:27;;;;;;;31;22.9;;;;;;;;;;;;;
2022/03/20 03:44:52;;;;;;;33.7;22.9;;;;;;;;;;;;;
2022/03/20 03:47:17;;;;;;;30.7;21.6;;;;;;;;;;;;;
2022/03/20 03:49:42;;;;;;;29.3;21.1;;;;;;;;;;;;;
2022/03/20 03:52:07;;;;;;;42.5;27.1;;;;;;;;;;;;;
2022/03/20 03:54:33;;;;;;;40.4;26.7;;;;;;;;;;;;;
2022/03/20 03:56:58;;;;;;;60.2;37.2;;;;;;;;;;;;;
2022/03/20 03:59:23;;;;;;;29.4;20.9;;;;;;;;;;;;;
2022/03/20 04:02:50;;;;;;;29.5;21.1;;;;;;;0.98;79.05078;947.8684;;;;
2022/03/20 04:05:17;;;;;;;34.5;22.4;;;;;;;0.96;79.19043;947.8741;;;;
2022/03/20 04:07:41;;;;;;;29.5;21.5;;;;;;;0.85;79.71875;947.7892;;;;
2022/03/20 04:10:11;;;;;;;25.2;19.2;;;;;;;0.93;78.90625;947.8102;;;;
2022/03/20 04:12:36;;;;;;;28.6;20;;;;;;;0.92;78.97168;947.8695;;;;
2022/03/20 04:15:02;;;;;;;26.8;19.1;;;;;;;0.83;79.32324;947.8445;;;;
2022/03/20 04:17:27;;;;;;;25.4;18.2;;;;;;;0.86;79.27246;947.8602;;;;
2022/03/20 04:19:52;;;;;;;23.6;17.6;;;;;;;0.82;79.17676;947.8859;;;;
2022/03/20 04:22:18;;;;;;;24.5;17.8;;;;;;;0.76;79.35449;947.9026;;;;
2022/03/20 04:24:42;;;;;;;28.8;19.2;;;;;;;0.7;79.55566;947.9358;;;;
2022/03/20 04:27:08;;;;;;;25.2;18.1;;;;;;;0.69;79.78906;947.9186;;;;
2022/03/20 04:29:33;;;;;;;27.1;19.3;;;;;;;0.65;79.88086;947.9167;;;;
2022/03/20 04:31:58;;;;;;;25.9;18.9;;;;;;;0.75;79.67773;947.9559;;;;
2022/03/20 04:34:23;;;;;;;24.9;18.5;;;;;;;0.79;79.32715;947.9461;;;;
2022/03/20 04:36:50;;;;;;;27.1;18.7;;;;;;;0.85;78.94727;947.9269;;;;
2022/03/20 04:39:15;;;;;;;24.6;18.8;;;;;;;0.88;78.55176;947.9815;;;;
2022/03/20 04:41:41;;;;;;;28.6;19.3;;;;;;;0.84;78.34277;948.0408;;;;
2022/03/20 04:44:09;;;;;;;28.2;19.8;;;;;;;0.77;78.64355;948.0505;;;;
2022/03/20 04:46:30;;;;;;;29;19.4;;;;;;;0.7;78.91992;948.0298;;;;
2022/03/20 04:58:40;;;;;;;24.5;17.7;;;;;;;0.64;78.94141;948.1887;;;;
2022/03/20 05:01:02;;;;;;;25.3;17.7;;;;;;;0.68;78.73633;948.1217;;;;
2022/03/20 05:03:28;;;;;;;23.4;17.1;;;;;;;0.74;78.4248;948.2061;;;;
2022/03/20 05:05:53;;;;;;;23.9;17.6;;;;;;;0.88;77.88184;948.2073;;;;
2022/03/20 05:08:18;;;;;;;25;17;;;;;;;0.97;77.22852;948.2531;;;;
2022/03/20 05:13:23;;;;;;;23.7;17.3;;;;;;;0.84;77.68555;948.3296;;;;
2022/03/20 05:15:35;;;;;;;24.3;17.7;;;;;;;0.78;78.04199;948.3625;;;;
2022/03/20 05:17:59;;;;;;;25;18;;;;;;;0.83;77.62695;948.412;;;;
2022/03/20 05:20:25;;;;;;;25.4;17.9;;;;;;;0.9;77.33984;948.3342;;;;
2022/03/20 05:22:51;;;;;;;25.7;17.8;;;;;;;0.96;77.02637;948.4437;;;;
2022/03/20 05:25:16;;;;;;;24.6;16.8;;;;;;;0.96;76.94824;948.4983;;;;
2022/03/20 05:27:41;;;;;;;23.5;16.3;;;;;;;0.87;76.88672;948.4852;;;;
2022/03/20 05:30:07;;;;;;;22.7;15.8;;;;;;;0.91;76.93848;948.5197;;;;
2022/03/20 05:32:33;;;;;;;23;16.5;;;;;;;0.88;77.32422;948.5526;;;;
2022/03/20 05:34:58;;;;;;;24.4;18;;;;;;;1.01;76.88965;948.4855;;;;
2022/03/20 05:37:23;;;;;;;25.1;17.3;;;;;;;1.09;76.21191;948.55;;;;
2022/03/20 05:39:50;;;;;;;31.2;19.8;;;;;;;1.14;76.03125;948.527;;;;
2022/03/20 05:42:15;;;;;;;28.1;18.9;;;;;;;1.09;76.03125;948.588;;;;
2022/03/20 05:44:41;;;;;;;28.3;18.5;;;;;;;1.01;76.37598;948.5073;;;;
2022/03/20 05:47:06;;;;;;;24.1;17.7;;;;;;;0.92;76.56055;948.5977;;;;
2022/03/20 05:49:32;;;;;;;23.7;16.9;;;;;;;0.82;77.40332;948.5958;;;;
2022/03/20 05:51:57;;;;;;;22.2;15.4;;;;;;;0.88;77.15625;948.641;;;;
2022/03/20 05:54:22;;;;;;;24.1;16.6;;;;;;;0.83;77.33789;948.6058;;;;
2022/03/20 05:59:14;;;;;;;28.4;17.9;;;;;;;1.3;77.31055;948.6828;;;;
2022/03/20 06:01:39;;;;;;;21.4;15.5;;;;;;;2.06;73.88965;948.5136;;;;
2022/03/20 06:04:06;;;;;;;23.7;15.7;;;;;;;2.87;70.16211;948.6658;;;;
2022/03/20 06:06:31;;;;;;;24.5;16.8;;;;;;;3.29;67.99805;948.6269;;;;
2022/03/20 06:08:57;;;;;;;23.9;17.2;;;;;;;3.83;65.47559;948.6928;;;;
2022/03/20 06:11:23;;;;;;;25.5;17.3;;;;;;;4.13;64.44238;948.6534;;;;
2022/03/20 06:13:48;;;;;;;23.2;17;;;;;;;4.28;63.41895;948.6922;;;;
2022/03/20 06:16:13;;;;;;;23.7;15.9;;;;;;;4.94;61.39844;948.608;;;;
2022/03/20 06:18:40;;;;;;;18;13.3;;;;;;;5.6;59.3252;948.6847;;;;
2022/03/20 06:21:06;;;;;;;18.6;13.3;;;;;;;6.07;57.56055;948.6236;;;;
2022/03/20 06:23:31;;;;;;;25.8;16.7;;;;;;;5.39;59.16113;948.7098;;;;
2022/03/20 06:25:54;;;;;;;25.5;16.4;;;;;;;5.64;58.10059;948.6927;;;;
2022/03/20 06:28:19;;;;;;;25;17.4;;;;;;;6.23;56.71094;948.769;;;;
2022/03/20 06:30:44;;;;;;;22;15.8;;;;;;;6.76;56.2041;948.7285;;;;
2022/03/20 06:33:10;;;;;;;22.3;14.9;;;;;;;7.47;53.56543;948.7249;;;;
2022/03/20 06:35:35;;;;;;;20.9;14.9;;;;;;;7.83;53.53125;948.7414;;;;
2022/03/20 06:38:02;;;;;;;19.4;13.2;;;;;;;8.09;52.30273;948.7399;;;;
2022/03/20 06:40:27;;;;;;;21.9;15.3;;;;;;;7.81;52.81348;948.7841;;;;
2022/03/20 06:42:54;;;;;;;26.8;15.7;;;;;;;8.21;50.27441;948.7697;;;;
2022/03/20 06:45:20;;;;;;;27.9;18.4;;;;;;;7.85;52.16016;948.7712;;;;
2022/03/20 06:47:45;;;;;;;22.3;15.2;;;;;;;8.06;51.98145;948.8505;;;;
2022/03/20 06:50:10;;;;;;;13.9;10.6;;;;;;;7.83;49.09473;948.7919;;;;
2022/03/20 06:52:35;;;;;;;15.5;12;;;;;;;8.29;49.44336;948.7559;;;;
2022/03/20 06:55:00;;;;;;;14.1;11.4;;;;;;;8.08;49.99707;948.8409;;;;
2022/03/20 06:57:27;;;;;;;14.9;11.6;;;;;;;9.6;46.29004;948.7645;;;;
2022/03/20 06:59:52;;;;;;;15;11.7;;;;;;;9.03;47.52441;948.8152;;;;
2022/03/20 07:02:18;;;;;;;13.3;10.6;;;;;;;9.77;45.14453;948.7634;;;;
2022/03/20 07:05:05;;;;;;;14.3;10.8;;;;;;;9.3;45.14063;948.817;;;;
2022/03/20 07:07:30;;;;;;;15.5;10.7;;;;;;;10.12;44.07617;948.7597;;;;
2022/03/20 07:09:56;;;;;;;14.6;10.5;;;;;;;10.28;42.72168;948.8036;;;;
2022/03/20 07:12:21;;;;;;;13.5;10.3;;;;;;;10.85;42.06934;948.7381;;;;
2022/03/20 07:14:46;;;;;;;15;10.6;;;;;;;12.27;40.38477;948.7428;;;;
2022/03/20 07:17:12;;;;;;;15.9;11;;;;;;;11.86;40.17578;948.801;;;;
2022/03/20 07:19:37;;;;;;;13.6;10.6;;;;;;;12.22;39.08496;948.812;;;;
2022/03/20 07:22:02;;;;;;;16.8;10.7;;;;;;;12.25;40.45215;948.8423;;;;
2022/03/20 07:24:27;;;;;;;14;10.5;;;;;;;13.03;36.83789;948.8427;;;;
2022/03/20 07:29:33;;;;;;;12.8;10.1;;;;;;;14.41;34.59375;948.7258;;;;
2022/03/20 07:31:43;;;;;;;14;9.2;;;;;;;15.27;33.10449;948.7168;;;;
2022/03/20 07:34:08;;;;;;;13.7;10.1;;;;;;;15.06;32.67285;948.7933;;;;
2022/03/20 07:36:34;;;;;;;12;10.1;;;;;;;15.72;32.91895;948.7692;;;;
2022/03/20 07:38:59;;;;;;;12.9;9.5;;;;;;;16.75;31.79102;948.8318;;;;
2022/03/20 07:41:24;;;;;;;13.9;10.3;;;;;;;17.38;29.20508;948.7266;;;;
2022/03/20 07:43:50;;;;;;;11.2;9.5;;;;;;;17.76;29.18262;948.7401;;;;
2022/03/20 07:46:14;;;;;;;12.5;9.3;;;;;;;18.49;28.24316;948.7344;;;;
2022/03/20 07:48:39;;;;;;;12.1;9.5;;;;;;;17.62;27.82813;948.7344;;;;
2022/03/20 07:51:04;;;;;;;12.4;9.4;;;;;;;18.88;26.29004;948.7285;;;;
2022/03/20 07:53:29;;;;;;;10.4;8.4;;;;;;;18.99;26.58691;948.7197;;;;
2022/03/20 07:55:54;;;;;;;9.6;8;;;;;;;18.77;27.03906;948.6691;;;;
2022/03/20 07:58:19;;;;;;;11.6;8.4;;;;;;;19.46;25.98633;948.7342;;;;
2022/03/20 08:00:44;;;;;;;10.4;8;;;;;;;19.78;25.30566;948.6552;;;;
2022/03/20 08:03:10;;;;;;;10.1;8;;;;;;;19.62;24.5498;948.6337;;;;
2022/03/20 08:05:36;;;;;;;10.4;8.3;;;;;;;19.21;23.88672;948.6256;;;;
2022/03/20 08:08:02;;;;;;;11;8.2;;;;;;;17.89;25.12793;948.6547;;;;
2022/03/20 08:10:27;;;;;;;10.9;7.7;;;;;;;19.27;25.37012;948.6239;;;;
2022/03/20 08:12:52;;;;;;;12.1;8;;;;;;;21.06;22.24414;948.6602;;;;
2022/03/20 08:15:17;;;;;;;10.4;7.3;;;;;;;20.95;22.22754;948.693;;;;
2022/03/20 08:17:42;;;;;;;11.7;8;;;;;;;20.78;20.81543;948.7129;;;;
2022/03/20 08:20:07;;;;;;;11.1;8.2;;;;;;;22.35;21.23047;948.6683;;;;
2022/03/20 08:22:33;;;;;;;10.7;8.3;;;;;;;19.62;21.16992;948.6727;;;;
2022/03/20 08:24:58;;;;;;;11.4;8.4;;;;;;;19.99;20.5459;948.5887;;;;
2022/03/20 08:27:24;;;;;;;9.9;7.9;;;;;;;19.88;20.9834;948.6117;;;;
2022/03/20 08:29:50;;;;;;;9.9;8.1;;;;;;;20.91;20.08594;948.5778;;;;
2022/03/20 08:32:16;;;;;;;9.9;7.6;;;;;;;20;20.59277;948.5491;;;;
2022/03/20 08:34:42;;;;;;;10.2;8.1;;;;;;;20.34;20.11816;948.5621;;;;
2022/03/20 08:37:07;;;;;;;10.8;7.2;;;;;;;19.36;20.60938;948.5675;;;;
2022/03/20 08:39:32;;;;;;;10.1;7.8;;;;;;;20.64;19.81641;948.5917;;;;
2022/03/20 08:41:58;;;;;;;9.4;7.5;;;;;;;20.15;20.62305;948.5647;;;;
2022/03/20 08:44:26;;;;;;;9.9;7.8;;;;;;;20.14;20.7627;948.585;;;;
2022/03/20 08:46:49;;;;;;;9.7;7.3;;;;;;;20.46;20.1123;948.4949;;;;
2022/03/20 08:49:13;;;;;;;9.7;7;;;;;;;20.12;20.73828;948.498;;;;
2022/03/20 08:51:39;;;;;;;8.3;6.7;;;;;;;20.55;20.29102;948.5051;;;;
2022/03/20 08:54:04;;;;;;;8.1;6.9;;;;;;;20.58;19.28809;948.516;;;;
2022/03/20 08:56:30;;;;;;;9.9;7.3;;;;;;;20.13;19.85156;948.5625;;;;
2022/03/20 08:58:55;;;;;;;9.2;6.6;;;;;;;20.94;19.56055;948.5514;;;;
2022/03/20 09:01:20;;;;;;;8.5;6.6;;;;;;;22.43;18.98145;948.4366;;;;
2022/03/20 09:03:49;;;;;;;8.4;7.3;;;;;;;22.35;18.30957;948.4905;;;;
2022/03/20 09:06:10;;;;;;;9.7;6.9;;;;;;;20.84;18.70313;948.4938;;;;
2022/03/20 09:08:35;;;;;;;8.4;6.6;;;;;;;20.95;19.58496;948.4719;;;;
2022/03/20 09:11:00;;;;;;;6.7;5.9;;;;;;;21.25;20.06641;948.3591;;;;
2022/03/20 09:13:25;;;;;;;7.8;6.5;;;;;;;21.49;19.20996;948.3417;;;;
2022/03/20 09:20:34;;;;;;;9;6.4;;;;;;;22.34;17.32324;948.322;;;;
2022/03/20 09:22:59;;;;;;;8.6;6.1;;;;;;;21.67;18.23438;948.2375;;;;
2022/03/20 09:25:24;;;;;;;8.5;6.3;;;;;;;22.11;18.49902;948.3642;;;;
2022/03/20 09:27:51;;;;;;;8.2;6.3;;;;;;;22.64;17.33496;948.2971;;;;
2022/03/20 09:30:15;;;;;;;8.5;6.4;;;;;;;22.78;17.81055;948.3628;;;;
2022/03/20 09:32:40;;;;;;;9.2;6.2;;;;;;;22.02;17.26465;948.4052;;;;
2022/03/20 09:35:06;;;;;;;6.9;5.7;;;;;;;22.23;17.2959;948.432;;;;
2022/03/20 09:37:31;;;;;;;6.8;5.7;;;;;;;22.4;17.31445;948.4174;;;;
2022/03/20 09:39:58;;;;;;;8.4;6.3;;;;;;;21.45;16.89063;948.4314;;;;
2022/03/20 09:42:22;;;;;;;7.5;6;;;;;;;21.81;17.31445;948.3957;;;;
2022/03/20 09:44:48;;;;;;;7;5.8;;;;;;;22.2;16.93164;948.3569;;;;
2022/03/20 09:47:13;;;;;;;8.8;6.2;;;;;;;22.13;17.35059;948.4263;;;;
2022/03/20 09:49:38;;;;;;;7.5;6;;;;;;;21.77;17.80469;948.342;;;;
2022/03/20 09:52:03;;;;;;;7.7;6.1;;;;;;;21.14;17.4873;948.3958;;;;
2022/03/20 09:54:28;;;;;;;7.3;5.5;;;;;;;20.8;18.74805;948.3806;;;;
2022/03/20 09:56:55;;;;;;;8.8;6.4;;;;;;;22;17.06445;948.3381;;;;
2022/03/20 09:59:19;;;;;;;7.6;5.7;;;;;;;21.77;17.43066;948.2829;;;;
2022/03/20 10:01:44;;;;;;;6.7;5.9;;;;;;;21.88;16.60254;948.2479;;;;
2022/03/20 10:04:10;;;;;;;6.9;5.5;;;;;;;21.36;16.11523;948.2568;;;;
2022/03/20 10:06:35;;;;;;;7.4;5.7;;;;;;;20.37;16.94336;948.2745;;;;
2022/03/20 10:09:00;;;;;;;7.9;6.1;;;;;;;20.07;17.50391;948.2721;;;;
2022/03/20 10:11:26;;;;;;;8.7;5.6;;;;;;;21.08;18.01172;948.2768;;;;
2022/03/20 10:13:51;;;;;;;7.1;5.7;;;;;;;22.13;17.15137;948.2575;;;;
2022/03/20 10:16:16;;;;;;;8.4;5.8;;;;;;;21.14;17.94434;948.2808;;;;
2022/03/20 10:18:41;;;;;;;8.7;5.9;;;;;;;22.24;17.4375;948.2037;;;;
2022/03/20 10:21:09;;;;;;;7.7;5.7;;;;;;;23.56;16.94727;948.1886;;;;
2022/03/20 10:23:31;;;;;;;8.3;5.6;;;;;;;24.68;16.73145;948.2142;;;;
2022/03/20 10:25:57;;;;;;;5.9;5.2;;;;;;;24.51;15.0625;948.1863;;;;
2022/03/20 10:28:22;;;;;;;7.7;5.9;;;;;;;23.36;16.43457;948.1802;;;;
2022/03/20 10:30:47;;;;;;;6.6;5.8;;;;;;;24.45;16.30957;948.1309;;;;
2022/03/20 10:33:12;;;;;;;6.5;5.7;;;;;;;23.01;16.75098;948.0764;;;;
2022/03/20 10:35:39;;;;;;;7.7;5.8;;;;;;;22.66;16.0918;947.9977;;;;
2022/03/20 10:38:02;;;;;;;9;6.1;;;;;;;22.33;18.69531;948.0681;;;;
2022/03/20 10:40:27;;;;;;;6.9;5.5;;;;;;;23.85;17.53613;948.0112;;;;
2022/03/20 10:42:53;;;;;;;8.2;5.4;;;;;;;24.96;15.63281;947.9835;;;;
2022/03/20 10:45:18;;;;;;;7.7;5.5;;;;;;;24.03;17.0957;947.9952;;;;
2022/03/20 10:47:43;;;;;;;9.3;6.9;;;;;;;24.17;15.92285;947.9012;;;;
2022/03/20 10:50:08;;;;;;;8;5.8;;;;;;;23.64;16.57422;947.9522;;;;
2022/03/20 10:52:36;;;;;;;9;6.2;;;;;;;24.31;15.03223;947.9498;;;;
2022/03/20 10:55:00;;;;;;;7.4;5.9;;;;;;;23.91;15.9375;947.9266;;;;
2022/03/20 10:57:25;;;;;;;8.5;5.8;;;;;;;24.82;15.85156;947.9061;;;;
2022/03/20 10:59:50;;;;;;;9.4;6.2;;;;;;;25.76;15.11719;947.7815;;;;
2022/03/20 11:02:16;;;;;;;8.3;5.8;;;;;;;26.72;14.90039;947.8058;;;;
2022/03/20 11:04:57;;;;;;;7.8;6;;;;;;;26.71;14.5918;947.7751;;;;
2022/03/20 11:08:07;;;;;;;7.8;5.7;;;;;;;25.83;16.7041;947.7271;;;;
2022/03/20 11:10:33;;;;;;;10.7;6.4;;;;;;;27.22;14.18164;947.7484;;;;
2022/03/20 11:12:59;;;;;;;9.1;6.5;;;;;;;26.09;14.18164;947.756;;;;
2022/03/20 11:15:23;;;;;;;9.3;6.1;;;;;;;25.21;14.75586;947.8198;;;;
2022/03/20 11:17:48;;;;;;;7.5;6.1;;;;;;;25.63;15.14844;947.7601;;;;
2022/03/20 11:20:13;;;;;;;9.8;6.3;;;;;;;25.87;14.33984;947.7153;;;;
2022/03/20 11:22:38;;;;;;;8.5;6.3;;;;;;;26.42;14.94922;947.6179;;;;
2022/03/20 11:25:03;;;;;;;8.4;5.8;;;;;;;27.06;13.72656;947.6749;;;;
2022/03/20 11:27:28;;;;;;;8.1;6;;;;;;;25.44;14.65723;947.6923;;;;
2022/03/20 11:29:53;;;;;;;8.5;6.2;;;;;;;25.84;14.25684;947.6266;;;;
2022/03/20 11:32:19;;;;;;;14.4;6.5;;;;;;;26;15.11328;947.5995;;;;
2022/03/20 11:34:44;;;;;;;8.5;6.1;;;;;;;26.44;14.83203;947.5652;;;;
2022/03/20 11:37:09;;;;;;;6.9;5.4;;;;;;;26.51;15.9707;947.5708;;;;
2022/03/20 11:39:34;;;;;;;7.6;5.7;;;;;;;27.68;15.27637;947.5286;;;;
2022/03/20 11:42:01;;;;;;;8.3;5.7;;;;;;;27.07;15.54102;947.5328;;;;
2022/03/20 11:44:26;;;;;;;7.6;5.2;;;;;;;27.17;16.01758;947.5306;;;;
2022/03/20 11:48:17;;;;;;;8.7;5.6;;;;;;;27.34;15.44336;947.4995;;;;
2022/03/20 11:50:42;;;;;;;7.6;5.9;;;;;;;25.52;17.84961;947.5314;;;;
2022/03/20 11:53:07;;;;;;;9.8;6;;;;;;;25.41;16.6875;947.5422;;;;
2022/03/20 11:55:33;;;;;;;9.9;6.4;;;;;;;24.78;17.3125;947.5016;;;;
2022/03/20 11:59:28;;;;;;;9.1;6.6;;;;;;;24.83;18.89551;947.514;;;;
2022/03/20 12:01:53;;;;;;;11.9;6.6;;;;;;;25.66;17.76074;947.442;;;;
2022/03/20 12:04:21;;;;;;;10.9;7.2;;;;;;;24.71;18.39551;947.4222;;;;
2022/03/20 12:06:43;;;;;;;9.6;7.4;;;;;;;24.08;19.49902;947.4023;;;;
2022/03/20 12:09:08;;;;;;;12.1;7.2;;;;;;;23.78;19.36816;947.3831;;;;
2022/03/20 12:11:33;;;;;;;10.5;7;;;;;;;23.75;19.9209;947.2449;;;;
2022/03/20 12:13:58;;;;;;;11.5;8;;;;;;;23.24;20.16797;947.3231;;;;
2022/03/20 12:16:23;;;;;;;14;8;;;;;;;24.53;19.53027;947.3543;;;;
2022/03/20 12:18:49;;;;;;;11.7;8.2;;;;;;;25.95;18.5166;947.2162;;;;
2022/03/20 12:21:15;;;;;;;11.5;8.2;;;;;;;23.48;20.40234;947.2726;;;;
2022/03/20 12:23:40;;;;;;;13.4;8.5;;;;;;;23.45;20.45898;947.2759;;;;
2022/03/20 12:26:04;;;;;;;10.9;7.8;;;;;;;24.06;20.28711;947.3392;;;;
2022/03/20 12:28:29;;;;;;;11;8.4;;;;;;;24.64;19.7002;947.3333;;;;
2022/03/20 12:30:54;;;;;;;12.1;8.4;;;;;;;25.85;18.26465;947.3649;;;;
2022/03/20 12:33:20;;;;;;;12.4;8;;;;;;;25.6;18.24219;947.2963;;;;
2022/03/20 12:35:47;;;;;;;11.3;8.3;;;;;;;25.75;18.2959;947.3069;;;;
2022/03/20 12:38:15;;;;;;;12.1;7.3;;;;;;;24.58;19.0498;947.2672;;;;
2022/03/20 12:40:44;;;;;;;12.3;7.4;;;;;;;24.17;19.44434;947.3127;;;;
2022/03/20 12:43:10;;;;;;;11.6;8.1;;;;;;;23.76;19.86133;947.3024;;;;
2022/03/20 12:45:37;;;;;;;10.3;7.9;;;;;;;23.6;20.19629;947.307;;;;
2022/03/20 12:48:02;;;;;;;11.7;8.1;;;;;;;23.55;20.13477;947.2065;;;;
2022/03/20 12:50:33;;;;;;;13.4;8.7;;;;;;;23.81;19.93555;947.1926;;;;
2022/03/20 12:52:59;;;;;;;12.5;7.6;;;;;;;24.02;19.00195;947.2305;;;;
2022/03/20 12:55:23;;;;;;;12.4;7.7;;;;;;;23.58;19.71289;947.2533;;;;
2022/03/20 12:57:49;;;;;;;10.6;7.2;;;;;;;23.64;19.49219;947.2266;;;;
2022/03/20 13:00:14;;;;;;;11.5;7.1;;;;;;;23.07;19.69043;947.2247;;;;
2022/03/20 13:02:44;;;;;;;10.2;7;;;;;;;24.02;18.74316;947.223;;;;
2022/03/20 13:05:10;;;;;;;9.8;7.2;;;;;;;24.19;18.77344;947.2355;;;;
2022/03/20 13:07:36;;;;;;;11.9;7.9;;;;;;;23.27;19.60449;947.0996;;;;
2022/03/20 13:09:59;;;;;;;11.3;7.4;;;;;;;22.96;20.75488;947.0541;;;;
2022/03/20 13:12:26;;;;;;;10.6;7.7;;;;;;;22.93;20.72949;947.0605;;;;
2022/03/20 13:14:55;;;;;;;10.1;7.8;;;;;;;22.69;20.57715;947.1199;;;;
2022/03/20 13:17:19;;;;;;;11.4;7.4;;;;;;;23.03;19.66504;947.1339;;;;
2022/03/20 13:19:47;;;;;;;10.8;7.6;;;;;;;23.32;19.64258;947.1138;;;;
2022/03/20 13:22:13;;;;;;;9.5;7.4;;;;;;;23.13;19.98633;947.038;;;;
2022/03/20 13:24:38;;;;;;;10.8;7.6;;;;;;;23.89;19.06738;947.1362;;;;
2022/03/20 13:27:04;;;;;;;9.9;6.9;;;;;;;25.23;17.47168;947.1429;;;;
2022/03/20 13:29:29;;;;;;;10.4;7.2;;;;;;;25.32;17.4043;947.0753;;;;
2022/03/20 13:31:54;;;;;;;12.6;7.2;;;;;;;24.1;18.51074;947.0941;;;;
2022/03/20 13:34:20;;;;;;;9.3;7.3;;;;;;;23.36;18.91504;947.0397;;;;
2022/03/20 13:36:46;;;;;;;9.8;6.7;;;;;;;23.06;19.83105;947.0413;;;;
2022/03/20 13:39:10;;;;;;;9.7;7.1;;;;;;;23.73;19.2373;947.0453;;;;
2022/03/20 13:41:35;;;;;;;10.5;7.7;;;;;;;23.75;19.26172;947.0903;;;;
2022/03/20 13:44:01;;;;;;;9.5;7.5;;;;;;;23.22;19.79102;947.0347;;;;
2022/03/20 13:46:27;;;;;;;10.4;7.3;;;;;;;22.4;20.95117;947.0652;;;;
2022/03/20 13:48:52;;;;;;;12.3;7.3;;;;;;;22.89;20.64551;947.0151;;;;
2022/03/20 13:51:18;;;;;;;10.9;7.5;;;;;;;23.21;20.47168;947.0611;;;;
2022/03/20 13:53:43;;;;;;;9.5;7.2;;;;;;;24.12;19.93652;947.0374;;;;
2022/03/20 13:56:08;;;;;;;11.6;7.4;;;;;;;23.17;20.51758;947.0522;;;;
2022/03/20 13:58:35;;;;;;;10.6;7.2;;;;;;;24.3;19.81543;947.0106;;;;
2022/03/20 14:00:58;;;;;;;11.1;7.6;;;;;;;23.77;19.81543;946.9994;;;;
2022/03/20 14:03:25;;;;;;;13;7.5;;;;;;;23.77;20.12109;946.8937;;;;
2022/03/20 14:05:49;;;;;;;12.1;7.8;;;;;;;23.35;20.18457;946.9056;;;;
2022/03/20 14:08:15;;;;;;;10.9;7.6;;;;;;;22.89;21.10352;946.9031;;;;
2022/03/20 14:10:39;;;;;;;10.4;8;;;;;;;21.82;21.87305;946.897;;;;
2022/03/20 14:13:06;;;;;;;10.3;7.3;;;;;;;22.41;21.49121;946.956;;;;
2022/03/20 14:15:32;;;;;;;10;7.8;;;;;;;23.12;20.86719;946.9511;;;;
2022/03/20 14:17:56;;;;;;;11.8;7.6;;;;;;;23.03;21.19238;946.9601;;;;
2022/03/20 14:20:24;;;;;;;11.3;8;;;;;;;22.39;21.63086;946.9785;;;;
2022/03/20 14:22:49;;;;;;;12.8;9.1;;;;;;;21.54;22.53809;946.971;;;;
2022/03/20 14:25:14;;;;;;;12.3;8.2;;;;;;;21.07;23.30957;947.0369;;;;
2022/03/20 14:27:40;;;;;;;14.9;8.5;;;;;;;21.88;22.20313;946.991;;;;
2022/03/20 14:39:46;;;;;;;11.7;8.2;;;;;;;21.11;23.1709;947.0863;;;;
2022/03/20 14:42:10;;;;;;;12.1;8.6;;;;;;;20.49;24.33008;947.0492;;;;
2022/03/20 14:44:35;;;;;;;12.2;8.7;;;;;;;20.26;23.90918;947.1086;;;;
2022/03/20 14:47:01;;;;;;;11.5;8.1;;;;;;;19.78;24.39551;947.1033;;;;
2022/03/20 14:49:25;;;;;;;12.5;9.1;;;;;;;18.91;25.20898;947.0994;;;;
2022/03/20 14:51:51;;;;;;;12.5;8.7;;;;;;;18.74;25.59473;947.0989;;;;
2022/03/20 14:54:15;;;;;;;13.2;8.4;;;;;;;18.08;26.24121;946.9885;;;;
2022/03/20 14:56:40;;;;;;;12.5;8.4;;;;;;;17.7;26.97363;947.0452;;;;
2022/03/20 14:59:05;;;;;;;11.5;8.1;;;;;;;17.74;26.60449;947.0031;;;;
2022/03/20 15:01:31;;;;;;;11.6;8.5;;;;;;;17.56;26.90723;947.0217;;;;
2022/03/20 15:03:56;;;;;;;11.1;8.3;;;;;;;17.26;27.5498;946.9531;;;;
2022/03/20 15:06:24;;;;;;;12.9;8.6;;;;;;;17.3;27.86523;946.9489;;;;
2022/03/20 15:11:27;;;;;;;14.5;9.2;;;;;;;16.73;29.05664;946.9786;;;;
2022/03/20 15:13:37;;;;;;;11.7;9.1;;;;;;;16.54;28.46484;946.9877;;;;
2022/03/20 15:16:03;;;;;;;12.3;9.2;;;;;;;16.5;28.9375;947.0245;;;;
2022/03/20 15:18:28;;;;;;;12.3;9;;;;;;;16.63;28.70313;946.9855;;;;
2022/03/20 15:20:54;;;;;;;13.8;9.7;;;;;;;16.57;28.74512;946.9378;;;;
2022/03/20 15:23:19;;;;;;;13.5;9.3;;;;;;;16.71;28.95117;946.9858;;;;
2022/03/20 15:25:45;;;;;;;11.8;8.8;;;;;;;16.75;28.7334;946.9416;;;;
2022/03/20 15:28:10;;;;;;;11.7;8.9;;;;;;;16.65;28.54199;946.9904;;;;
2022/03/20 15:30:36;;;;;;;10.5;8.2;;;;;;;16.41;28.93262;946.9526;;;;
2022/03/20 15:33:01;;;;;;;11.5;8.9;;;;;;;15.62;30.13867;947.0575;;;;
2022/03/20 15:35:26;;;;;;;11.2;8.6;;;;;;;15.67;29.89941;947.0031;;;;
2022/03/20 15:37:52;;;;;;;11;8.3;;;;;;;15.84;29.7832;946.955;;;;
2022/03/20 15:40:17;;;;;;;11.9;9.1;;;;;;;15.97;29.52734;946.9875;;;;
2022/03/20 15:42:43;;;;;;;11.8;8.7;;;;;;;15.87;30.10938;946.9913;;;;
2022/03/20 15:45:08;;;;;;;11.5;8.6;;;;;;;16.08;29.84668;946.9841;;;;
2022/03/20 15:47:34;;;;;;;11.7;8.5;;;;;;;16.21;29.25293;946.9972;;;;
2022/03/20 15:49:59;;;;;;;12;8.6;;;;;;;15.82;29.18164;946.9709;;;;
2022/03/20 15:52:24;;;;;;;12;8.4;;;;;;;15.68;29.35742;947.0159;;;;
2022/03/20 15:54:50;;;;;;;10.5;8.2;;;;;;;15.78;29.94141;946.9584;;;;
2022/03/20 15:57:15;;;;;;;9.8;8.1;;;;;;;15.73;29.58008;946.9969;;;;